sensor_id;sensor_type;location;lat;lon;timestamp;temperature;humidity
56771;DHT22;42641;59.794;17.616;2023-12-04T00:02:22;-9.00;99.90
56771;DHT22;42641;59.794;17.616;2023-12-04T00:04:49;-9.00;99.90
56771;DHT22;42641;59.794;17.616;2023-12-04T00:07:15;-9.10;99.90
56771;DHT22;42641;59.794;17.616;2023-12-04T00:09:41;-9.20;99.90
56771;DHT22;42641;59.794;17.616;2023-12-04T00:12:08;-9.20;99.90
56771;DHT22;42641;59.794;17.616;2023-12-04T00:14:34;-9.20;99.90
56771;DHT22;42641;59.794;17.616;2023-12-04T00:17:01;-9.30;99.90
56771;DHT22;42641;59.794;17.616;2023-12-04T00:19:27;-9.30;99.90
56771;DHT22;42641;59.794;17.616;2023-12-04T00:21:53;-9.40;99.90
56771;DHT22;42641;59.794;17.616;2023-12-04T00:24:20;-9.40;99.90
56771;DHT22;42641;59.794;17.616;2023-12-04T00:26:46;-9.50;99.90
56771;DHT22;42641;59.794;17.616;2023-12-04T00:29:12;-9.50;99.90
56771;DHT22;42641;59.794;17.616;2023-12-04T00:31:39;-9.60;99.90
56771;DHT22;42641;59.794;17.616;2023-12-04T00:34:05;-9.70;99.90
56771;DHT22;42641;59.794;17.616;2023-12-04T00:36:31;-9.70;99.90
56771;DHT22;42641;59.794;17.616;2023-12-04T00:38:58;-9.70;99.90
56771;DHT22;42641;59.794;17.616;2023-12-04T00:41:24;-9.80;99.90
56771;DHT22;42641;59.794;17.616;2023-12-04T00:43:51;-9.80;99.90
56771;DHT22;42641;59.794;17.616;2023-12-04T00:46:17;-9.80;99.90
56771;DHT22;42641;59.794;17.616;2023-12-04T00:48:43;-9.90;99.90
56771;DHT22;42641;59.794;17.616;2023-12-04T00:51:12;-9.90;99.90
56771;DHT22;42641;59.794;17.616;2023-12-04T00:53:38;-9.90;99.90
56771;DHT22;42641;59.794;17.616;2023-12-04T00:56:05;-9.90;99.90
56771;DHT22;42641;59.794;17.616;2023-12-04T00:58:32;-9.90;99.90
56771;DHT22;42641;59.794;17.616;2023-12-04T01:00:58;-9.90;99.90
56771;DHT22;42641;59.794;17.616;2023-12-04T01:03:25;-9.90;99.90
56771;DHT22;42641;59.794;17.616;2023-12-04T01:05:52;-9.90;99.90
56771;DHT22;42641;59.794;17.616;2023-12-04T01:08:19;-9.90;99.90
56771;DHT22;42641;59.794;17.616;2023-12-04T01:10:45;-9.90;99.90
56771;DHT22;42641;59.794;17.616;2023-12-04T01:13:12;-9.90;99.90
56771;DHT22;42641;59.794;17.616;2023-12-04T01:15:38;-9.90;99.90
56771;DHT22;42641;59.794;17.616;2023-12-04T01:18:05;-10.00;99.90
56771;DHT22;42641;59.794;17.616;2023-12-04T01:20:31;-10.00;99.90
56771;DHT22;42641;59.794;17.616;2023-12-04T01:22:59;-10.00;99.90
56771;DHT22;42641;59.794;17.616;2023-12-04T01:25:25;-10.00;99.90
56771;DHT22;42641;59.794;17.616;2023-12-04T01:27:52;-10.10;99.90
56771;DHT22;42641;59.794;17.616;2023-12-04T01:30:18;-10.10;99.90
56771;DHT22;42641;59.794;17.616;2023-12-04T01:32:45;-10.10;99.90
56771;DHT22;42641;59.794;17.616;2023-12-04T01:35:11;-10.20;99.90
56771;DHT22;42641;59.794;17.616;2023-12-04T01:37:37;-10.20;99.90
56771;DHT22;42641;59.794;17.616;2023-12-04T01:40:05;-10.20;99.90
56771;DHT22;42641;59.794;17.616;2023-12-04T01:42:33;-10.20;99.90
56771;DHT22;42641;59.794;17.616;2023-12-04T01:44:59;-10.20;99.90
56771;DHT22;42641;59.794;17.616;2023-12-04T01:47:25;-10.20;99.90
56771;DHT22;42641;59.794;17.616;2023-12-04T01:49:52;-10.10;99.90
56771;DHT22;42641;59.794;17.616;2023-12-04T01:52:19;-10.00;99.90
56771;DHT22;42641;59.794;17.616;2023-12-04T01:54:45;-10.00;99.90
56771;DHT22;42641;59.794;17.616;2023-12-04T01:57:11;-10.00;99.90
56771;DHT22;42641;59.794;17.616;2023-12-04T01:59:38;-10.00;99.90
56771;DHT22;42641;59.794;17.616;2023-12-04T02:02:05;-9.90;99.90
56771;DHT22;42641;59.794;17.616;2023-12-04T02:04:31;-9.80;99.90
56771;DHT22;42641;59.794;17.616;2023-12-04T02:06:58;-9.70;99.90
56771;DHT22;42641;59.794;17.616;2023-12-04T02:09:25;-9.60;99.90
56771;DHT22;42641;59.794;17.616;2023-12-04T02:11:52;-9.50;99.90
56771;DHT22;42641;59.794;17.616;2023-12-04T02:14:19;-9.50;99.90
56771;DHT22;42641;59.794;17.616;2023-12-04T02:16:46;-9.50;99.90
56771;DHT22;42641;59.794;17.616;2023-12-04T02:19:12;-9.40;99.90
56771;DHT22;42641;59.794;17.616;2023-12-04T02:21:39;-9.30;99.90
56771;DHT22;42641;59.794;17.616;2023-12-04T02:24:05;-9.20;99.90
56771;DHT22;42641;59.794;17.616;2023-12-04T02:26:36;-9.20;99.90
56771;DHT22;42641;59.794;17.616;2023-12-04T02:29:13;-9.20;99.90
56771;DHT22;42641;59.794;17.616;2023-12-04T02:31:41;-9.20;99.90
56771;DHT22;42641;59.794;17.616;2023-12-04T02:34:09;-9.20;99.90
56771;DHT22;42641;59.794;17.616;2023-12-04T02:36:37;-9.30;99.90
56771;DHT22;42641;59.794;17.616;2023-12-04T02:39:05;-9.30;99.90
56771;DHT22;42641;59.794;17.616;2023-12-04T02:41:31;-9.30;99.90
56771;DHT22;42641;59.794;17.616;2023-12-04T02:43:57;-9.30;99.90
56771;DHT22;42641;59.794;17.616;2023-12-04T02:46:24;-9.20;99.90
56771;DHT22;42641;59.794;17.616;2023-12-04T02:48:50;-9.20;99.90
56771;DHT22;42641;59.794;17.616;2023-12-04T02:51:17;-9.20;99.90
56771;DHT22;42641;59.794;17.616;2023-12-04T02:53:43;-9.20;99.90
56771;DHT22;42641;59.794;17.616;2023-12-04T02:56:10;-9.20;99.90
56771;DHT22;42641;59.794;17.616;2023-12-04T02:58:36;-9.30;99.90
56771;DHT22;42641;59.794;17.616;2023-12-04T03:01:03;-9.20;99.90
56771;DHT22;42641;59.794;17.616;2023-12-04T03:03:29;-9.20;99.90
56771;DHT22;42641;59.794;17.616;2023-12-04T03:05:56;-9.30;99.90
56771;DHT22;42641;59.794;17.616;2023-12-04T03:08:22;-9.20;99.90
56771;DHT22;42641;59.794;17.616;2023-12-04T03:10:49;-9.10;99.90
56771;DHT22;42641;59.794;17.616;2023-12-04T03:13:15;-9.10;99.90
56771;DHT22;42641;59.794;17.616;2023-12-04T03:15:41;-9.10;99.90
56771;DHT22;42641;59.794;17.616;2023-12-04T03:18:08;-9.10;99.90
56771;DHT22;42641;59.794;17.616;2023-12-04T03:20:34;-9.10;99.90
56771;DHT22;42641;59.794;17.616;2023-12-04T03:23:00;-9.10;99.90
56771;DHT22;42641;59.794;17.616;2023-12-04T03:25:27;-9.20;99.90
56771;DHT22;42641;59.794;17.616;2023-12-04T03:27:53;-9.20;99.90
56771;DHT22;42641;59.794;17.616;2023-12-04T03:30:19;-9.20;99.90
56771;DHT22;42641;59.794;17.616;2023-12-04T03:32:46;-9.10;99.90
56771;DHT22;42641;59.794;17.616;2023-12-04T03:35:12;-9.20;99.90
56771;DHT22;42641;59.794;17.616;2023-12-04T03:37:39;-9.10;99.90
56771;DHT22;42641;59.794;17.616;2023-12-04T03:40:06;-9.10;99.90
56771;DHT22;42641;59.794;17.616;2023-12-04T03:42:32;-9.10;99.90
56771;DHT22;42641;59.794;17.616;2023-12-04T03:44:59;-9.00;99.90
56771;DHT22;42641;59.794;17.616;2023-12-04T03:47:25;-9.00;99.90
56771;DHT22;42641;59.794;17.616;2023-12-04T03:49:51;-9.00;99.90
56771;DHT22;42641;59.794;17.616;2023-12-04T03:52:18;-8.90;99.90
56771;DHT22;42641;59.794;17.616;2023-12-04T03:54:44;-8.70;99.90
56771;DHT22;42641;59.794;17.616;2023-12-04T03:57:11;-8.80;99.90
56771;DHT22;42641;59.794;17.616;2023-12-04T03:59:37;-8.80;99.90
56771;DHT22;42641;59.794;17.616;2023-12-04T04:02:04;-8.80;99.90
56771;DHT22;42641;59.794;17.616;2023-12-04T04:04:30;-8.90;99.90
56771;DHT22;42641;59.794;17.616;2023-12-04T04:06:57;-9.00;99.90
56771;DHT22;42641;59.794;17.616;2023-12-04T04:09:23;-9.00;99.90
56771;DHT22;42641;59.794;17.616;2023-12-04T04:11:49;-9.00;99.90
56771;DHT22;42641;59.794;17.616;2023-12-04T04:14:16;-9.00;99.90
56771;DHT22;42641;59.794;17.616;2023-12-04T04:16:42;-9.10;99.90
56771;DHT22;42641;59.794;17.616;2023-12-04T04:19:09;-9.20;99.90
56771;DHT22;42641;59.794;17.616;2023-12-04T04:21:39;-9.30;99.90
56771;DHT22;42641;59.794;17.616;2023-12-04T04:24:06;-9.30;99.90
56771;DHT22;42641;59.794;17.616;2023-12-04T04:26:33;-9.30;99.90
56771;DHT22;42641;59.794;17.616;2023-12-04T04:28:59;-9.30;99.90
56771;DHT22;42641;59.794;17.616;2023-12-04T04:31:25;-9.30;99.90
56771;DHT22;42641;59.794;17.616;2023-12-04T04:33:52;-9.20;99.90
56771;DHT22;42641;59.794;17.616;2023-12-04T04:36:18;-9.30;99.90
56771;DHT22;42641;59.794;17.616;2023-12-04T04:38:45;-9.30;99.90
56771;DHT22;42641;59.794;17.616;2023-12-04T04:41:14;-9.30;99.90
56771;DHT22;42641;59.794;17.616;2023-12-04T04:43:42;-9.30;99.90
56771;DHT22;42641;59.794;17.616;2023-12-04T04:46:08;-9.40;99.90
56771;DHT22;42641;59.794;17.616;2023-12-04T04:48:35;-9.30;99.90
56771;DHT22;42641;59.794;17.616;2023-12-04T04:51:02;-9.40;99.90
56771;DHT22;42641;59.794;17.616;2023-12-04T04:53:28;-9.40;99.90
56771;DHT22;42641;59.794;17.616;2023-12-04T04:55:55;-9.40;99.90
56771;DHT22;42641;59.794;17.616;2023-12-04T04:58:21;-9.40;99.90
56771;DHT22;42641;59.794;17.616;2023-12-04T05:00:48;-9.40;99.90
56771;DHT22;42641;59.794;17.616;2023-12-04T05:03:14;-9.50;99.90
56771;DHT22;42641;59.794;17.616;2023-12-04T05:05:40;-9.50;99.90
56771;DHT22;42641;59.794;17.616;2023-12-04T05:08:07;-9.50;99.90
56771;DHT22;42641;59.794;17.616;2023-12-04T05:10:33;-9.60;99.90
56771;DHT22;42641;59.794;17.616;2023-12-04T05:12:59;-9.60;99.90
56771;DHT22;42641;59.794;17.616;2023-12-04T05:15:26;-9.50;99.90
56771;DHT22;42641;59.794;17.616;2023-12-04T05:17:52;-9.40;99.90
56771;DHT22;42641;59.794;17.616;2023-12-04T05:20:19;-9.40;99.90
56771;DHT22;42641;59.794;17.616;2023-12-04T05:22:45;-9.30;99.90
56771;DHT22;42641;59.794;17.616;2023-12-04T05:25:12;-9.30;99.90
56771;DHT22;42641;59.794;17.616;2023-12-04T05:27:38;-9.30;99.90
56771;DHT22;42641;59.794;17.616;2023-12-04T05:30:05;-9.20;99.90
56771;DHT22;42641;59.794;17.616;2023-12-04T05:32:32;-9.10;99.90
56771;DHT22;42641;59.794;17.616;2023-12-04T05:34:58;-9.10;99.90
56771;DHT22;42641;59.794;17.616;2023-12-04T05:37:24;-9.00;99.90
56771;DHT22;42641;59.794;17.616;2023-12-04T05:39:51;-8.90;99.90
56771;DHT22;42641;59.794;17.616;2023-12-04T05:42:17;-8.90;99.90
56771;DHT22;42641;59.794;17.616;2023-12-04T05:44:44;-8.90;99.90
56771;DHT22;42641;59.794;17.616;2023-12-04T05:47:10;-9.00;99.90
56771;DHT22;42641;59.794;17.616;2023-12-04T05:49:37;-9.00;99.90
56771;DHT22;42641;59.794;17.616;2023-12-04T05:52:03;-9.10;99.90
56771;DHT22;42641;59.794;17.616;2023-12-04T05:54:30;-9.20;99.90
56771;DHT22;42641;59.794;17.616;2023-12-04T05:56:56;-9.20;99.90
56771;DHT22;42641;59.794;17.616;2023-12-04T05:59:22;-9.20;99.90
56771;DHT22;42641;59.794;17.616;2023-12-04T06:01:49;-9.20;99.90
56771;DHT22;42641;59.794;17.616;2023-12-04T06:04:15;-9.20;99.90
56771;DHT22;42641;59.794;17.616;2023-12-04T06:06:42;-9.30;99.90
56771;DHT22;42641;59.794;17.616;2023-12-04T06:09:09;-9.30;99.90
56771;DHT22;42641;59.794;17.616;2023-12-04T06:11:35;-9.30;99.90
56771;DHT22;42641;59.794;17.616;2023-12-04T06:14:01;-9.30;99.90
56771;DHT22;42641;59.794;17.616;2023-12-04T06:16:28;-9.30;99.90
56771;DHT22;42641;59.794;17.616;2023-12-04T06:18:55;-9.20;99.90
56771;DHT22;42641;59.794;17.616;2023-12-04T06:21:21;-9.20;99.90
56771;DHT22;42641;59.794;17.616;2023-12-04T06:23:48;-9.20;99.90
56771;DHT22;42641;59.794;17.616;2023-12-04T06:26:14;-9.20;99.90
56771;DHT22;42641;59.794;17.616;2023-12-04T06:28:41;-9.20;99.90
56771;DHT22;42641;59.794;17.616;2023-12-04T06:31:08;-9.10;99.90
56771;DHT22;42641;59.794;17.616;2023-12-04T06:33:35;-9.10;99.90
56771;DHT22;42641;59.794;17.616;2023-12-04T06:36:02;-9.10;99.90
56771;DHT22;42641;59.794;17.616;2023-12-04T06:38:31;-9.10;99.90
56771;DHT22;42641;59.794;17.616;2023-12-04T06:40:59;-9.00;99.90
56771;DHT22;42641;59.794;17.616;2023-12-04T06:43:26;-9.00;99.90
56771;DHT22;42641;59.794;17.616;2023-12-04T06:45:53;-8.90;99.90
56771;DHT22;42641;59.794;17.616;2023-12-04T06:48:21;-8.80;99.90
56771;DHT22;42641;59.794;17.616;2023-12-04T06:50:47;-8.80;99.90
56771;DHT22;42641;59.794;17.616;2023-12-04T06:53:14;-8.70;99.90
56771;DHT22;42641;59.794;17.616;2023-12-04T06:55:40;-8.70;99.90
56771;DHT22;42641;59.794;17.616;2023-12-04T06:58:07;-8.50;99.90
56771;DHT22;42641;59.794;17.616;2023-12-04T07:00:33;-8.50;99.90
56771;DHT22;42641;59.794;17.616;2023-12-04T07:03:00;-8.40;99.90
56771;DHT22;42641;59.794;17.616;2023-12-04T07:05:26;-8.30;99.90
56771;DHT22;42641;59.794;17.616;2023-12-04T07:07:52;-8.30;99.90
56771;DHT22;42641;59.794;17.616;2023-12-04T07:10:19;-8.30;99.90
56771;DHT22;42641;59.794;17.616;2023-12-04T07:12:45;-8.20;99.90
56771;DHT22;42641;59.794;17.616;2023-12-04T07:15:12;-8.10;99.90
56771;DHT22;42641;59.794;17.616;2023-12-04T07:17:39;-8.00;99.90
56771;DHT22;42641;59.794;17.616;2023-12-04T07:20:06;-7.90;99.90
56771;DHT22;42641;59.794;17.616;2023-12-04T07:22:33;-7.80;99.90
56771;DHT22;42641;59.794;17.616;2023-12-04T07:24:59;-7.70;99.90
56771;DHT22;42641;59.794;17.616;2023-12-04T07:27:26;-7.70;99.90
56771;DHT22;42641;59.794;17.616;2023-12-04T07:29:52;-7.70;99.90
56771;DHT22;42641;59.794;17.616;2023-12-04T07:32:18;-7.70;99.90
56771;DHT22;42641;59.794;17.616;2023-12-04T07:34:45;-7.60;99.90
56771;DHT22;42641;59.794;17.616;2023-12-04T07:37:12;-7.50;99.90
56771;DHT22;42641;59.794;17.616;2023-12-04T07:39:38;-7.50;99.90
56771;DHT22;42641;59.794;17.616;2023-12-04T07:42:05;-7.50;99.90
56771;DHT22;42641;59.794;17.616;2023-12-04T07:44:32;-7.50;99.90
56771;DHT22;42641;59.794;17.616;2023-12-04T07:46:59;-7.30;99.90
56771;DHT22;42641;59.794;17.616;2023-12-04T07:49:25;-7.20;99.90
56771;DHT22;42641;59.794;17.616;2023-12-04T07:51:51;-7.10;99.90
56771;DHT22;42641;59.794;17.616;2023-12-04T07:54:18;-7.10;99.90
56771;DHT22;42641;59.794;17.616;2023-12-04T07:56:44;-7.00;99.90
56771;DHT22;42641;59.794;17.616;2023-12-04T07:59:11;-7.00;99.90
56771;DHT22;42641;59.794;17.616;2023-12-04T08:01:37;-7.00;99.90
56771;DHT22;42641;59.794;17.616;2023-12-04T08:04:04;-7.00;99.90
56771;DHT22;42641;59.794;17.616;2023-12-04T08:06:30;-7.00;99.90
56771;DHT22;42641;59.794;17.616;2023-12-04T08:08:57;-7.00;99.90
56771;DHT22;42641;59.794;17.616;2023-12-04T08:11:23;-7.00;99.90
56771;DHT22;42641;59.794;17.616;2023-12-04T08:13:50;-6.90;99.90
56771;DHT22;42641;59.794;17.616;2023-12-04T08:16:16;-6.80;99.90
56771;DHT22;42641;59.794;17.616;2023-12-04T08:18:43;-6.70;99.90
56771;DHT22;42641;59.794;17.616;2023-12-04T08:21:09;-6.60;99.90
56771;DHT22;42641;59.794;17.616;2023-12-04T08:23:36;-6.40;99.90
56771;DHT22;42641;59.794;17.616;2023-12-04T08:26:02;-6.30;99.90
56771;DHT22;42641;59.794;17.616;2023-12-04T08:28:29;-6.30;99.90
56771;DHT22;42641;59.794;17.616;2023-12-04T08:30:55;-6.30;99.90
56771;DHT22;42641;59.794;17.616;2023-12-04T08:33:22;-6.30;99.90
56771;DHT22;42641;59.794;17.616;2023-12-04T08:35:48;-6.20;99.90
56771;DHT22;42641;59.794;17.616;2023-12-04T08:38:15;-6.30;99.90
56771;DHT22;42641;59.794;17.616;2023-12-04T08:40:41;-6.20;99.90
56771;DHT22;42641;59.794;17.616;2023-12-04T08:43:09;-6.10;99.90
56771;DHT22;42641;59.794;17.616;2023-12-04T08:45:35;-6.10;99.90
56771;DHT22;42641;59.794;17.616;2023-12-04T08:48:02;-6.10;99.90
56771;DHT22;42641;59.794;17.616;2023-12-04T08:50:28;-6.10;99.90
56771;DHT22;42641;59.794;17.616;2023-12-04T08:52:55;-6.00;99.90
56771;DHT22;42641;59.794;17.616;2023-12-04T08:55:21;-6.00;99.90
56771;DHT22;42641;59.794;17.616;2023-12-04T08:57:48;-5.90;99.90
56771;DHT22;42641;59.794;17.616;2023-12-04T09:00:14;-5.90;99.90
56771;DHT22;42641;59.794;17.616;2023-12-04T09:02:41;-5.90;99.90
56771;DHT22;42641;59.794;17.616;2023-12-04T09:05:07;-5.80;99.90
56771;DHT22;42641;59.794;17.616;2023-12-04T09:07:36;-5.80;99.90
56771;DHT22;42641;59.794;17.616;2023-12-04T09:10:03;-5.80;99.90
56771;DHT22;42641;59.794;17.616;2023-12-04T09:12:29;-5.80;99.90
56771;DHT22;42641;59.794;17.616;2023-12-04T09:14:56;-5.70;99.90
56771;DHT22;42641;59.794;17.616;2023-12-04T09:17:22;-5.70;99.90
56771;DHT22;42641;59.794;17.616;2023-12-04T09:19:49;-5.70;99.90
56771;DHT22;42641;59.794;17.616;2023-12-04T09:22:15;-5.70;99.90
56771;DHT22;42641;59.794;17.616;2023-12-04T09:24:42;-5.70;99.90
56771;DHT22;42641;59.794;17.616;2023-12-04T09:27:08;-5.80;99.90
56771;DHT22;42641;59.794;17.616;2023-12-04T09:29:35;-5.80;99.90
56771;DHT22;42641;59.794;17.616;2023-12-04T09:32:01;-5.80;99.90
56771;DHT22;42641;59.794;17.616;2023-12-04T09:34:27;-5.70;99.90
56771;DHT22;42641;59.794;17.616;2023-12-04T09:36:54;-5.70;99.90
56771;DHT22;42641;59.794;17.616;2023-12-04T09:39:20;-5.80;99.90
56771;DHT22;42641;59.794;17.616;2023-12-04T09:41:47;-5.90;99.90
56771;DHT22;42641;59.794;17.616;2023-12-04T09:44:13;-6.00;99.90
56771;DHT22;42641;59.794;17.616;2023-12-04T09:46:41;-6.00;99.90
56771;DHT22;42641;59.794;17.616;2023-12-04T09:49:08;-6.10;99.90
56771;DHT22;42641;59.794;17.616;2023-12-04T09:51:36;-6.20;99.90
56771;DHT22;42641;59.794;17.616;2023-12-04T09:54:03;-6.20;99.90
56771;DHT22;42641;59.794;17.616;2023-12-04T09:56:33;-6.20;99.90
56771;DHT22;42641;59.794;17.616;2023-12-04T09:59:00;-6.10;99.90
56771;DHT22;42641;59.794;17.616;2023-12-04T10:01:31;-6.00;99.90
56771;DHT22;42641;59.794;17.616;2023-12-04T10:04:01;-6.00;99.90
56771;DHT22;42641;59.794;17.616;2023-12-04T10:06:31;-5.90;99.90
56771;DHT22;42641;59.794;17.616;2023-12-04T10:08:57;-5.90;99.90
56771;DHT22;42641;59.794;17.616;2023-12-04T10:11:24;-5.90;99.90
56771;DHT22;42641;59.794;17.616;2023-12-04T10:13:53;-6.00;99.90
56771;DHT22;42641;59.794;17.616;2023-12-04T10:16:34;-6.10;99.90
56771;DHT22;42641;59.794;17.616;2023-12-04T10:19:25;-6.10;99.90
56771;DHT22;42641;59.794;17.616;2023-12-04T10:21:55;-6.10;99.90
56771;DHT22;42641;59.794;17.616;2023-12-04T10:24:38;-6.00;99.90
56771;DHT22;42641;59.794;17.616;2023-12-04T10:27:05;-6.00;99.90
56771;DHT22;42641;59.794;17.616;2023-12-04T10:29:47;-5.90;99.90
56771;DHT22;42641;59.794;17.616;2023-12-04T10:32:18;-5.80;99.90
56771;DHT22;42641;59.794;17.616;2023-12-04T10:34:48;-5.70;99.90
56771;DHT22;42641;59.794;17.616;2023-12-04T10:37:15;-5.60;99.90
56771;DHT22;42641;59.794;17.616;2023-12-04T10:42:29;-5.50;99.90
56771;DHT22;42641;59.794;17.616;2023-12-04T10:44:57;-5.40;99.90
56771;DHT22;42641;59.794;17.616;2023-12-04T10:47:23;-5.50;99.90
56771;DHT22;42641;59.794;17.616;2023-12-04T10:49:50;-5.50;99.90
56771;DHT22;42641;59.794;17.616;2023-12-04T10:52:18;-5.50;99.90
56771;DHT22;42641;59.794;17.616;2023-12-04T10:54:48;-5.50;99.90
56771;DHT22;42641;59.794;17.616;2023-12-04T10:57:31;-5.50;99.90
56771;DHT22;42641;59.794;17.616;2023-12-04T11:00:03;-5.50;99.90
56771;DHT22;42641;59.794;17.616;2023-12-04T11:02:35;-5.50;99.90
56771;DHT22;42641;59.794;17.616;2023-12-04T11:05:08;-5.50;99.90
56771;DHT22;42641;59.794;17.616;2023-12-04T11:07:46;-5.60;99.90
56771;DHT22;42641;59.794;17.616;2023-12-04T11:10:14;-5.70;99.90
56771;DHT22;42641;59.794;17.616;2023-12-04T11:12:45;-5.70;99.90
56771;DHT22;42641;59.794;17.616;2023-12-04T11:15:15;-5.70;99.90
56771;DHT22;42641;59.794;17.616;2023-12-04T11:17:43;-5.70;99.90
56771;DHT22;42641;59.794;17.616;2023-12-04T11:20:18;-5.50;99.90
56771;DHT22;42641;59.794;17.616;2023-12-04T11:22:48;-5.40;99.90
56771;DHT22;42641;59.794;17.616;2023-12-04T11:25:15;-5.30;99.90
56771;DHT22;42641;59.794;17.616;2023-12-04T11:27:42;-5.30;99.90
56771;DHT22;42641;59.794;17.616;2023-12-04T11:30:10;-5.30;99.90
56771;DHT22;42641;59.794;17.616;2023-12-04T11:32:48;-5.30;99.90
56771;DHT22;42641;59.794;17.616;2023-12-04T11:35:15;-5.30;99.90
56771;DHT22;42641;59.794;17.616;2023-12-04T11:37:47;-5.40;99.90
56771;DHT22;42641;59.794;17.616;2023-12-04T11:40:17;-5.50;99.90
56771;DHT22;42641;59.794;17.616;2023-12-04T11:42:43;-5.60;99.90
56771;DHT22;42641;59.794;17.616;2023-12-04T11:45:10;-5.50;99.90
56771;DHT22;42641;59.794;17.616;2023-12-04T11:50:16;-4.60;99.90
56771;DHT22;42641;59.794;17.616;2023-12-04T11:52:45;-4.30;99.90
56771;DHT22;42641;59.794;17.616;2023-12-04T11:55:11;-4.00;99.90
56771;DHT22;42641;59.794;17.616;2023-12-04T11:57:39;-3.80;99.90
56771;DHT22;42641;59.794;17.616;2023-12-04T12:00:10;-3.50;99.90
56771;DHT22;42641;59.794;17.616;2023-12-04T12:02:46;-3.30;99.90
56771;DHT22;42641;59.794;17.616;2023-12-04T12:05:13;-3.10;99.90
56771;DHT22;42641;59.794;17.616;2023-12-04T12:07:39;-3.20;99.90
56771;DHT22;42641;59.794;17.616;2023-12-04T12:10:06;-3.30;99.90
56771;DHT22;42641;59.794;17.616;2023-12-04T12:12:33;-3.20;99.90
56771;DHT22;42641;59.794;17.616;2023-12-04T12:15:00;-3.40;99.90
56771;DHT22;42641;59.794;17.616;2023-12-04T12:17:26;-3.60;99.90
56771;DHT22;42641;59.794;17.616;2023-12-04T12:19:54;-3.70;99.90
56771;DHT22;42641;59.794;17.616;2023-12-04T12:22:23;-3.90;99.90
56771;DHT22;42641;59.794;17.616;2023-12-04T12:24:50;-3.80;99.90
56771;DHT22;42641;59.794;17.616;2023-12-04T12:27:17;-3.70;99.90
56771;DHT22;42641;59.794;17.616;2023-12-04T12:29:43;-3.60;99.90
56771;DHT22;42641;59.794;17.616;2023-12-04T12:32:09;-3.40;99.90
56771;DHT22;42641;59.794;17.616;2023-12-04T12:34:36;-3.20;99.90
56771;DHT22;42641;59.794;17.616;2023-12-04T12:37:03;-3.10;99.90
56771;DHT22;42641;59.794;17.616;2023-12-04T12:39:32;-3.00;99.90
56771;DHT22;42641;59.794;17.616;2023-12-04T12:41:59;-3.00;99.90
56771;DHT22;42641;59.794;17.616;2023-12-04T12:44:27;-3.20;99.90
56771;DHT22;42641;59.794;17.616;2023-12-04T12:46:54;-3.50;99.90
56771;DHT22;42641;59.794;17.616;2023-12-04T12:49:20;-3.80;99.90
56771;DHT22;42641;59.794;17.616;2023-12-04T12:51:47;-4.20;99.90
56771;DHT22;42641;59.794;17.616;2023-12-04T12:54:13;-4.50;99.90
56771;DHT22;42641;59.794;17.616;2023-12-04T12:56:40;-4.70;99.90
56771;DHT22;42641;59.794;17.616;2023-12-04T12:59:06;-4.90;99.90
56771;DHT22;42641;59.794;17.616;2023-12-04T13:01:33;-5.00;99.90
56771;DHT22;42641;59.794;17.616;2023-12-04T13:04:00;-5.10;99.90
56771;DHT22;42641;59.794;17.616;2023-12-04T13:06:27;-5.20;99.90
56771;DHT22;42641;59.794;17.616;2023-12-04T13:08:53;-5.40;99.90
56771;DHT22;42641;59.794;17.616;2023-12-04T13:11:20;-5.50;99.90
56771;DHT22;42641;59.794;17.616;2023-12-04T13:13:46;-5.70;99.90
56771;DHT22;42641;59.794;17.616;2023-12-04T13:16:13;-5.80;99.90
56771;DHT22;42641;59.794;17.616;2023-12-04T13:18:39;-5.90;99.90
56771;DHT22;42641;59.794;17.616;2023-12-04T13:21:06;-5.90;99.90
56771;DHT22;42641;59.794;17.616;2023-12-04T13:23:36;-6.00;99.90
56771;DHT22;42641;59.794;17.616;2023-12-04T13:26:03;-6.10;99.90
56771;DHT22;42641;59.794;17.616;2023-12-04T13:28:30;-6.20;99.90
56771;DHT22;42641;59.794;17.616;2023-12-04T13:30:56;-6.30;99.90
56771;DHT22;42641;59.794;17.616;2023-12-04T13:33:23;-6.30;99.90
56771;DHT22;42641;59.794;17.616;2023-12-04T13:35:49;-6.40;99.90
56771;DHT22;42641;59.794;17.616;2023-12-04T13:38:15;-6.50;99.90
56771;DHT22;42641;59.794;17.616;2023-12-04T13:40:42;-6.60;99.90
56771;DHT22;42641;59.794;17.616;2023-12-04T13:43:15;-6.70;99.90
56771;DHT22;42641;59.794;17.616;2023-12-04T13:46:00;-6.80;99.90
56771;DHT22;42641;59.794;17.616;2023-12-04T13:48:27;-6.80;99.90
56771;DHT22;42641;59.794;17.616;2023-12-04T13:50:53;-6.90;99.90
56771;DHT22;42641;59.794;17.616;2023-12-04T13:53:20;-7.00;99.90
56771;DHT22;42641;59.794;17.616;2023-12-04T13:55:55;-7.10;99.90
56771;DHT22;42641;59.794;17.616;2023-12-04T13:58:27;-7.30;99.90
56771;DHT22;42641;59.794;17.616;2023-12-04T14:01:10;-7.40;99.90
56771;DHT22;42641;59.794;17.616;2023-12-04T14:03:41;-7.50;99.90
56771;DHT22;42641;59.794;17.616;2023-12-04T14:06:08;-7.50;99.90
56771;DHT22;42641;59.794;17.616;2023-12-04T14:08:35;-7.50;99.90
56771;DHT22;42641;59.794;17.616;2023-12-04T14:11:03;-7.60;99.90
56771;DHT22;42641;59.794;17.616;2023-12-04T14:13:32;-7.60;99.90
56771;DHT22;42641;59.794;17.616;2023-12-04T14:15:59;-7.60;99.90
56771;DHT22;42641;59.794;17.616;2023-12-04T14:18:27;-7.70;99.90
56771;DHT22;42641;59.794;17.616;2023-12-04T14:20:59;-7.80;99.90
56771;DHT22;42641;59.794;17.616;2023-12-04T14:23:27;-7.90;99.90
56771;DHT22;42641;59.794;17.616;2023-12-04T14:25:53;-8.00;99.90
56771;DHT22;42641;59.794;17.616;2023-12-04T14:28:20;-8.00;99.90
56771;DHT22;42641;59.794;17.616;2023-12-04T14:30:47;-8.00;99.90
56771;DHT22;42641;59.794;17.616;2023-12-04T14:33:13;-8.10;99.90
56771;DHT22;42641;59.794;17.616;2023-12-04T14:35:40;-8.10;99.90
56771;DHT22;42641;59.794;17.616;2023-12-04T14:38:06;-8.20;99.90
56771;DHT22;42641;59.794;17.616;2023-12-04T14:40:33;-8.20;99.90
56771;DHT22;42641;59.794;17.616;2023-12-04T14:42:59;-8.20;99.90
56771;DHT22;42641;59.794;17.616;2023-12-04T14:45:26;-8.30;99.90
56771;DHT22;42641;59.794;17.616;2023-12-04T14:47:52;-8.30;99.90
56771;DHT22;42641;59.794;17.616;2023-12-04T14:50:22;-8.30;99.90
56771;DHT22;42641;59.794;17.616;2023-12-04T14:52:50;-8.40;99.90
56771;DHT22;42641;59.794;17.616;2023-12-04T14:55:18;-8.50;99.90
56771;DHT22;42641;59.794;17.616;2023-12-04T14:57:53;-8.50;99.90
56771;DHT22;42641;59.794;17.616;2023-12-04T15:00:38;-8.60;99.90
56771;DHT22;42641;59.794;17.616;2023-12-04T15:03:28;-8.70;99.90
56771;DHT22;42641;59.794;17.616;2023-12-04T15:06:13;-8.70;99.90
56771;DHT22;42641;59.794;17.616;2023-12-04T15:08:39;-8.80;99.90
56771;DHT22;42641;59.794;17.616;2023-12-04T15:11:21;-8.80;99.90
56771;DHT22;42641;59.794;17.616;2023-12-04T15:13:50;-8.80;99.90
56771;DHT22;42641;59.794;17.616;2023-12-04T15:16:22;-8.80;99.90
56771;DHT22;42641;59.794;17.616;2023-12-04T15:18:58;-8.90;99.90
56771;DHT22;42641;59.794;17.616;2023-12-04T15:21:44;-8.90;99.90
56771;DHT22;42641;59.794;17.616;2023-12-04T15:24:11;-9.00;99.90